Adams, OK (73901)

3:58 AM CST on December 27, 2014 (GMT -0600)
Turpin School District I-128 | Change Station
CLOSE
Current Station
Personal Weather Station
Location: Turpin, OK
Elevation: 2769 ft
Nearby Weather Stations

Elev 2769 ft 36.86 °N, 100.88 °W | Updated 1 minute ago

Partly Cloudy
Partly Cloudy
20.1 °F
Feels Like 10 °F
N
8.5
Wind Variable Wind from WNW
Gusts 11.0 mph

Today
High -- | Low -- °F
--% Chance of Precip.
Yesterday
High -- | Low -- °F
Precip. -- in
7:56 AM 5:35 PM
Waxing Crescent, 35% visible
Pressure 30.24 in
Visibility 10.0 miles
Clouds Clear
Windchill 10 °F
Dew Point 17 °F
Humidity 87%
Rainfall 0.00 in
Snow Depth Not available.
UV 0 out of 12
Pollen .10 out of 12
Air Quality Not available.
Flu Activity Not available.
METAR KLBL 270935Z AUTO 31007KT 10SM CLR M07/M11 A3024 RMK AO1

More Conditions Fewer Conditions

Pressure 30.24 in
Visibility 10.0 miles
Clouds Clear
Windchill 10 °F
Dew Point 17 °F
Humidity 87%
Rainfall 0.00 in
Snow Depth Not available.
UV 0 out of 12
Pollen .10 out of 12
Air Quality Not available.
Flu Activity Not available.
METAR KLBL 270935Z AUTO 31007KT 10SM CLR M07/M11 A3024 RMK AO1

More Conditions Fewer Conditions

Nowcast | as of 3:25 am CST on December 27, 2014

An area of light snow over the southeast Texas Panhandle will continue moving northeast at 45 mph through 6 am. Most of the precipitation should remain south and east of a line extending from Canadian to Clarendon. Any snowfall accumulations should remain less than one half of an inch through 6 am.

×

10-Day Weather Forecast

Almanac

Astronomy

Dec. 27, 2014 Rise Set
Actual Time
Civil Twilight
Nautical Twilight
Astronomical Twilight
Moon
Length of Visible Light
Length of Day
Tomorrow will be .
, % of the Moon is Illuminated

Today's Extremes

State Highs State Lows

Community

WunderPhotos

Upload Photos

1,780,869 photos uploaded!

WunderBlogs® & News

Nearby

Air Quality

  Air Quality AQ Index Pollutant
Not available.

Snow Depth

Station Depth Elevation

Earthquake Activity

City Distance Mag. Time & Date
Minimum magnitude displayed is 2.5.

Coastal Water Temperatures

Place Temperature

Nearby Weather Stations